createdAt,value
2018-08-07T00:00:28.479Z,58.40
2018-08-07T00:02:56.315Z,58.10
2018-08-07T00:05:24.147Z,58.00
2018-08-07T00:07:53.283Z,58.00
2018-08-07T00:10:22.259Z,58.40
2018-08-07T00:12:50.146Z,58.30
2018-08-07T00:15:18.190Z,58.60
2018-08-07T00:17:45.964Z,58.60
2018-08-07T00:20:14.847Z,58.40
2018-08-07T00:22:43.351Z,58.70
2018-08-07T00:25:11.447Z,58.90
2018-08-07T00:27:39.767Z,58.70
2018-08-07T00:30:09.062Z,58.40
2018-08-07T00:32:37.187Z,58.60
2018-08-07T00:35:06.140Z,58.40
2018-08-07T00:37:33.944Z,58.50
2018-08-07T00:40:01.729Z,58.70
2018-08-07T00:42:29.444Z,58.60
2018-08-07T00:44:57.228Z,58.80
2018-08-07T00:47:24.931Z,59.00
2018-08-07T00:49:52.728Z,59.30
2018-08-07T00:52:20.444Z,60.00
2018-08-07T00:54:48.269Z,60.50
2018-08-07T00:57:16.011Z,60.60
2018-08-07T00:59:43.796Z,61.50
2018-08-07T01:02:11.619Z,61.40
2018-08-07T01:04:39.364Z,61.50
2018-08-07T01:07:07.077Z,61.60
2018-08-07T01:09:34.847Z,61.40
2018-08-07T01:12:02.575Z,61.10
2018-08-07T01:14:30.408Z,61.00
2018-08-07T01:16:58.131Z,60.90
2018-08-07T01:19:25.875Z,61.10
2018-08-07T01:21:53.700Z,61.40
2018-08-07T01:24:21.406Z,61.50
2018-08-07T01:26:49.226Z,62.00
2018-08-07T01:29:16.871Z,61.80
2018-08-07T01:31:44.655Z,62.50
2018-08-07T01:34:12.362Z,62.80
2018-08-07T01:36:40.103Z,63.40
2018-08-07T01:39:09.209Z,63.60
2018-08-07T01:41:37.076Z,63.30
2018-08-07T01:44:05.080Z,63.00
2018-08-07T01:46:32.762Z,63.60
2018-08-07T01:49:00.575Z,63.40
2018-08-07T01:51:28.311Z,63.70
2018-08-07T01:53:56.110Z,63.80
2018-08-07T01:56:23.800Z,63.70
2018-08-07T01:58:51.546Z,63.80
2018-08-07T02:01:19.243Z,63.80
2018-08-07T02:03:47.055Z,63.70
2018-08-07T02:06:14.904Z,63.90
2018-08-07T02:08:42.685Z,64.00
2018-08-07T02:11:10.319Z,64.50
2018-08-07T02:13:38.095Z,64.30
2018-08-07T02:16:05.879Z,65.00
2018-08-07T02:18:33.676Z,64.80
2018-08-07T02:21:01.528Z,64.70
2018-08-07T02:23:29.278Z,64.90
2018-08-07T02:25:57.064Z,64.80
2018-08-07T02:28:24.728Z,65.00
2018-08-07T02:30:52.486Z,65.20
2018-08-07T02:33:20.223Z,65.40
2018-08-07T02:35:48.868Z,65.30
2018-08-07T02:38:16.784Z,65.60
2018-08-07T02:40:44.519Z,66.40
2018-08-07T02:43:12.171Z,66.30
2018-08-07T02:45:40.003Z,66.30
2018-08-07T02:48:07.858Z,66.90
2018-08-07T02:50:36.019Z,67.90
2018-08-07T02:53:03.863Z,67.50
2018-08-07T02:55:31.494Z,67.30
2018-08-07T02:57:59.304Z,66.90
2018-08-07T03:00:27.072Z,67.00
2018-08-07T03:02:54.914Z,67.00
2018-08-07T03:05:22.600Z,66.80
2018-08-07T03:07:50.535Z,66.80
2018-08-07T03:10:18.211Z,66.40
2018-08-07T03:12:45.880Z,66.70
2018-08-07T03:15:16.037Z,66.50
2018-08-07T03:17:44.803Z,66.80
2018-08-07T03:20:12.576Z,67.00
2018-08-07T03:22:44.790Z,66.90
2018-08-07T03:25:15.725Z,67.00
2018-08-07T03:27:45.709Z,67.20
2018-08-07T03:30:22.108Z,67.20
2018-08-07T03:32:51.185Z,67.30
2018-08-07T03:35:22.703Z,66.70
2018-08-07T03:37:57.181Z,67.00
2018-08-07T03:40:30.595Z,67.00
2018-08-07T03:43:00.132Z,67.30
2018-08-07T03:45:31.811Z,67.30
2018-08-07T03:48:01.653Z,67.80
2018-08-07T03:50:36.256Z,68.70
2018-08-07T03:53:08.556Z,68.90
2018-08-07T03:55:37.611Z,69.20
2018-08-07T03:58:13.242Z,69.10
2018-08-07T04:00:47.729Z,69.20
2018-08-07T04:03:19.692Z,69.80
2018-08-07T04:05:49.406Z,69.60
2018-08-07T04:08:18.357Z,69.60
2018-08-07T04:10:49.343Z,69.50
2018-08-07T04:13:19.748Z,69.20
2018-08-07T04:15:49.324Z,69.30
2018-08-07T04:18:22.204Z,69.50
2018-08-07T04:20:52.385Z,69.40
2018-08-07T04:23:23.453Z,69.30
2018-08-07T04:25:52.797Z,69.30
2018-08-07T04:28:24.730Z,69.40
2018-08-07T04:30:56.854Z,69.30
2018-08-07T04:33:28.697Z,69.30
2018-08-07T04:36:01.084Z,69.80
2018-08-07T04:38:29.982Z,70.00
2018-08-07T04:40:57.751Z,70.10
2018-08-07T04:43:25.447Z,70.00
2018-08-07T04:45:53.135Z,69.90
2018-08-07T04:48:20.878Z,70.00
2018-08-07T04:50:48.532Z,70.10
2018-08-07T04:53:16.276Z,70.60
2018-08-07T04:55:43.895Z,70.40
2018-08-07T04:58:11.644Z,70.50
2018-08-07T05:00:39.296Z,70.90
2018-08-07T05:03:07.043Z,70.70
2018-08-07T05:05:34.772Z,70.50
2018-08-07T05:08:02.456Z,70.70
2018-08-07T05:10:30.282Z,70.30
2018-08-07T05:12:57.888Z,70.20
2018-08-07T05:15:25.591Z,70.40
2018-08-07T05:17:53.242Z,70.30
2018-08-07T05:20:20.987Z,69.90
2018-08-07T05:22:48.619Z,70.00
2018-08-07T05:25:16.363Z,70.00
2018-08-07T05:27:44.131Z,69.80
2018-08-07T05:30:13.379Z,69.70
2018-08-07T05:32:41.241Z,70.30
2018-08-07T05:35:09.499Z,70.00
2018-08-07T05:37:37.233Z,70.40
2018-08-07T05:40:05.448Z,70.60
2018-08-07T05:42:33.344Z,70.50
2018-08-07T05:45:01.012Z,70.40
2018-08-07T05:47:28.766Z,71.10
2018-08-07T05:49:56.469Z,70.70
2018-08-07T05:52:24.138Z,71.00
2018-08-07T05:54:51.752Z,70.10
2018-08-07T05:57:19.455Z,70.50
2018-08-07T05:59:47.072Z,70.80
2018-08-07T06:02:14.932Z,70.20
2018-08-07T06:04:42.543Z,70.20
2018-08-07T06:07:10.315Z,70.50
2018-08-07T06:09:37.955Z,70.90
2018-08-07T06:12:05.699Z,70.30
2018-08-07T06:14:33.319Z,70.10
2018-08-07T06:17:00.979Z,69.20
2018-08-07T06:19:28.751Z,69.40
2018-08-07T06:21:56.378Z,69.30
2018-08-07T06:24:24.138Z,69.50
2018-08-07T06:26:51.790Z,70.00
2018-08-07T06:29:19.491Z,69.00
2018-08-07T06:31:47.155Z,69.90
2018-08-07T06:34:14.859Z,69.10
2018-08-07T06:36:42.466Z,68.80
2018-08-07T06:39:10.426Z,68.30
2018-08-07T06:41:38.579Z,69.30
2018-08-07T06:44:06.279Z,67.60
2018-08-07T06:46:34.026Z,68.30
2018-08-07T06:49:01.675Z,68.80
2018-08-07T06:51:29.499Z,68.50
2018-08-07T06:53:58.208Z,68.10
2018-08-07T06:56:26.027Z,68.90
2018-08-07T06:58:53.673Z,66.80
2018-08-07T07:01:21.474Z,66.10
2018-08-07T07:03:49.287Z,67.30
2018-08-07T07:06:17.015Z,67.20
2018-08-07T07:08:46.222Z,66.30
2018-08-07T07:11:13.875Z,66.50
2018-08-07T07:13:41.781Z,66.20
2018-08-07T07:16:11.536Z,66.50
2018-08-07T07:18:39.371Z,65.70
2018-08-07T07:21:10.472Z,65.20
2018-08-07T07:23:38.576Z,65.10
2018-08-07T07:26:09.036Z,64.40
2018-08-07T07:28:37.935Z,65.40
2018-08-07T07:31:05.964Z,66.10
2018-08-07T07:33:33.939Z,66.20
2018-08-07T07:36:03.574Z,65.70
2018-08-07T07:38:31.981Z,63.10
2018-08-07T07:40:59.809Z,63.80
2018-08-07T07:43:28.557Z,62.90
2018-08-07T07:45:56.281Z,63.80
2018-08-07T07:48:26.167Z,62.50
2018-08-07T07:50:54.955Z,64.30
2018-08-07T07:53:22.763Z,61.90
2018-08-07T07:55:50.589Z,64.30
2018-08-07T07:58:18.440Z,62.40
2018-08-07T08:00:47.264Z,63.50
2018-08-07T08:03:15.141Z,61.20
2018-08-07T08:05:43.122Z,62.20
2018-08-07T08:08:10.809Z,61.20
2018-08-07T08:10:38.683Z,62.80
2018-08-07T08:13:07.006Z,61.80
2018-08-07T08:15:38.011Z,61.50
2018-08-07T08:18:06.769Z,58.80
2018-08-07T08:20:35.019Z,58.90
2018-08-07T08:23:02.783Z,59.30
2018-08-07T08:25:30.584Z,58.90
2018-08-07T08:27:58.291Z,58.70
2018-08-07T08:30:25.989Z,58.10
2018-08-07T08:32:53.886Z,58.40
2018-08-07T08:35:21.697Z,56.60
2018-08-07T08:37:49.750Z,57.80
2018-08-07T08:40:19.823Z,57.80
2018-08-07T08:42:47.733Z,57.90
2018-08-07T08:45:17.688Z,58.00
2018-08-07T08:47:46.770Z,56.70
2018-08-07T08:50:17.484Z,57.20
2018-08-07T08:52:48.331Z,57.90
2018-08-07T08:55:20.477Z,58.00
2018-08-07T08:57:50.807Z,58.10
2018-08-07T09:00:23.704Z,58.00
2018-08-07T09:02:53.126Z,58.70
2018-08-07T09:05:22.367Z,57.90
2018-08-07T09:07:52.114Z,57.90
2018-08-07T09:10:31.016Z,57.60
2018-08-07T09:12:59.740Z,57.20
2018-08-07T09:15:28.843Z,56.70
2018-08-07T09:18:00.590Z,57.30
2018-08-07T09:20:29.727Z,56.40
2018-08-07T09:22:58.455Z,56.40
2018-08-07T09:25:27.420Z,55.60
2018-08-07T09:27:55.144Z,55.40
2018-08-07T09:30:26.622Z,55.20
2018-08-07T09:33:00.354Z,55.80
2018-08-07T09:35:28.533Z,55.10
2018-08-07T09:37:58.179Z,55.00
2018-08-07T09:40:28.689Z,54.40
2018-08-07T09:42:56.834Z,55.30
2018-08-07T09:45:32.827Z,52.70
2018-08-07T09:48:02.599Z,52.20
2018-08-07T09:53:00.059Z,51.80
2018-08-07T09:55:27.851Z,51.50
2018-08-07T09:57:55.690Z,52.10
2018-08-07T10:00:29.447Z,52.00
2018-08-07T10:03:02.457Z,51.40
2018-08-07T10:05:31.529Z,49.50
2018-08-07T10:07:59.870Z,51.30
2018-08-07T10:10:31.163Z,50.00
2018-08-07T10:12:59.016Z,50.40
2018-08-07T10:15:27.451Z,49.60
2018-08-07T10:17:55.585Z,51.30
2018-08-07T10:20:23.405Z,49.20
2018-08-07T10:22:51.187Z,49.70
2018-08-07T10:25:19.572Z,50.30
2018-08-07T10:27:47.998Z,51.70
2018-08-07T10:30:19.944Z,48.50
2018-08-07T10:32:55.698Z,48.20
2018-08-07T10:35:31.019Z,49.10
2018-08-07T10:37:58.792Z,49.40
2018-08-07T10:40:30.126Z,47.20
2018-08-07T10:42:58.988Z,46.10
2018-08-07T10:45:28.124Z,48.00
2018-08-07T10:48:00.411Z,45.70
2018-08-07T10:50:29.370Z,45.10
2018-08-07T10:53:00.494Z,44.70
2018-08-07T10:55:37.617Z,44.90
2018-08-07T10:58:09.194Z,45.00
2018-08-07T11:00:40.767Z,44.30
2018-08-07T11:03:08.650Z,44.40
2018-08-07T11:05:38.943Z,45.80
2018-08-07T11:08:08.358Z,46.40
2018-08-07T11:10:37.502Z,46.50
2018-08-07T11:13:11.033Z,46.30
2018-08-07T11:15:39.083Z,47.80
2018-08-07T11:18:34.052Z,48.30
2018-08-07T11:21:01.938Z,48.20
2018-08-07T11:23:29.797Z,48.30
2018-08-07T11:25:57.511Z,48.40
2018-08-07T11:28:25.389Z,48.80
2018-08-07T11:30:53.579Z,49.30
2018-08-07T11:33:22.469Z,48.90
2018-08-07T11:35:50.290Z,50.00
2018-08-07T11:38:18.445Z,49.60
2018-08-07T11:40:47.793Z,49.60
2018-08-07T11:43:19.587Z,49.40
2018-08-07T11:45:49.085Z,49.60
2018-08-07T11:48:17.211Z,49.00
2018-08-07T11:50:45.007Z,49.50
2018-08-07T11:53:15.228Z,48.20
2018-08-07T11:55:43.458Z,49.30
2018-08-07T11:58:12.444Z,49.60
2018-08-07T12:00:43.288Z,48.70
2018-08-07T12:03:12.045Z,47.60
2018-08-07T12:05:41.052Z,48.40
2018-08-07T12:08:13.791Z,47.70
2018-08-07T12:10:42.748Z,48.70
2018-08-07T12:13:10.546Z,47.90
2018-08-07T12:15:38.699Z,48.40
2018-08-07T12:18:06.910Z,48.20
2018-08-07T12:20:34.675Z,48.30
2018-08-07T12:23:03.179Z,47.70
2018-08-07T12:25:32.024Z,48.20
2018-08-07T14:11:21.286Z,47.00
2018-08-07T14:13:50.124Z,51.70
2018-08-07T14:16:17.947Z,51.60
2018-08-07T14:18:45.801Z,52.20
2018-08-07T14:21:13.560Z,51.20
2018-08-07T14:23:41.471Z,51.70
2018-08-07T14:26:10.146Z,51.80
2018-08-07T14:28:38.155Z,52.60
2018-08-07T14:31:06.817Z,52.80
2018-08-07T14:33:34.713Z,52.30
2018-08-07T14:36:02.455Z,52.60
2018-08-07T14:38:30.415Z,52.20
2018-08-07T14:40:59.541Z,50.90
2018-08-07T14:43:30.540Z,50.80
2018-08-07T14:45:58.362Z,51.30
2018-08-07T14:48:29.639Z,50.80
2018-08-07T14:50:57.948Z,50.70
2018-08-07T14:53:27.179Z,50.60
2018-08-07T14:55:58.231Z,51.10
2018-08-07T14:58:39.541Z,51.30
2018-08-07T15:01:07.360Z,51.60
2018-08-07T15:03:35.276Z,50.90
2018-08-07T15:06:03.162Z,50.50
2018-08-07T15:08:30.844Z,50.10
2018-08-07T15:10:58.691Z,49.50
2018-08-07T15:13:26.424Z,49.10
2018-08-07T15:15:54.286Z,49.20
2018-08-07T15:18:22.059Z,49.80
2018-08-07T15:20:49.935Z,49.70
2018-08-07T15:23:17.614Z,49.00
2018-08-07T15:25:45.432Z,49.70
2018-08-07T15:28:13.132Z,50.00
2018-08-07T15:30:40.827Z,49.50
2018-08-07T15:33:08.778Z,49.40
2018-08-07T15:35:36.594Z,49.80
2018-08-07T15:38:04.393Z,49.90
2018-08-07T15:40:32.196Z,49.70
2018-08-07T15:42:59.983Z,49.20
2018-08-07T15:45:27.743Z,47.90
2018-08-07T15:47:55.585Z,48.00
2018-08-07T15:50:23.389Z,48.00
2018-08-07T15:52:52.313Z,48.80
2018-08-07T15:55:21.449Z,48.00
2018-08-07T15:57:49.393Z,48.10
2018-08-07T16:00:26.090Z,47.20
2018-08-07T16:02:54.193Z,46.50
2018-08-07T16:05:21.942Z,46.90
2018-08-07T16:07:50.846Z,46.30
2018-08-07T16:10:19.313Z,46.00
2018-08-07T16:12:48.219Z,46.30
2018-08-07T16:15:16.010Z,46.30
2018-08-07T16:17:44.961Z,46.00
2018-08-07T16:20:12.680Z,47.20
2018-08-07T16:22:40.545Z,47.70
2018-08-07T16:25:10.277Z,48.10
2018-08-07T16:27:38.495Z,48.80
2018-08-07T16:30:09.099Z,48.50
2018-08-07T16:32:36.815Z,48.90
2018-08-07T16:35:04.968Z,48.80
2018-08-07T16:37:32.703Z,49.60
2018-08-07T16:40:00.653Z,49.00
2018-08-07T16:42:28.412Z,48.50
2018-08-07T16:44:56.516Z,49.40
2018-08-07T16:47:24.287Z,49.20
2018-08-07T16:49:52.035Z,48.80
2018-08-07T16:52:19.701Z,49.00
2018-08-07T16:54:47.518Z,49.10
2018-08-07T16:57:15.287Z,48.90
2018-08-07T16:59:42.934Z,49.60
2018-08-07T17:02:10.804Z,50.20
2018-08-07T17:04:38.439Z,50.70
2018-08-07T17:07:06.209Z,50.90
2018-08-07T17:09:33.864Z,50.10
2018-08-07T17:12:01.636Z,50.80
2018-08-07T17:14:29.413Z,50.40
2018-08-07T17:16:57.255Z,50.40
2018-08-07T17:19:24.952Z,49.90
2018-08-07T17:21:52.737Z,50.00
2018-08-07T17:24:20.475Z,48.80
2018-08-07T17:26:48.218Z,48.80
2018-08-07T17:29:16.056Z,49.00
2018-08-07T17:31:43.718Z,48.40
2018-08-07T17:34:11.520Z,49.60
2018-08-07T17:36:39.298Z,49.80
2018-08-07T17:39:07.631Z,50.30
2018-08-07T17:41:35.688Z,50.50
2018-08-07T17:44:03.902Z,50.90
2018-08-07T17:46:31.627Z,50.80
2018-08-07T17:48:59.435Z,51.30
2018-08-07T17:51:27.150Z,51.50
2018-08-07T17:53:55.010Z,52.10
2018-08-07T17:56:22.713Z,52.70
2018-08-07T17:58:50.459Z,53.50
2018-08-07T18:01:18.151Z,54.10
2018-08-07T18:03:46.022Z,54.70
2018-08-07T18:06:13.775Z,54.60
2018-08-07T18:08:41.591Z,54.70
2018-08-07T18:11:09.259Z,54.80
2018-08-07T18:13:36.957Z,55.00
2018-08-07T18:16:04.785Z,55.10
2018-08-07T18:18:32.621Z,55.30
2018-08-07T18:21:00.386Z,55.10
2018-08-07T18:23:28.214Z,55.20
2018-08-07T18:25:55.919Z,55.10
2018-08-07T18:28:23.612Z,55.70
2018-08-07T18:30:51.422Z,56.00
2018-08-07T18:33:19.159Z,55.90
2018-08-07T18:35:46.960Z,55.50
2018-08-07T18:38:14.631Z,55.70
2018-08-07T18:40:42.376Z,55.60
2018-08-07T18:43:10.015Z,55.70
2018-08-07T18:45:37.860Z,55.80
2018-08-07T18:48:05.572Z,56.00
2018-08-07T18:50:33.374Z,56.10
2018-08-07T18:53:01.080Z,56.00
2018-08-07T18:55:28.862Z,56.20
2018-08-07T18:57:56.535Z,56.60
2018-08-07T19:00:24.962Z,57.00
2018-08-07T19:02:53.139Z,56.60
2018-08-07T19:05:22.335Z,56.60
2018-08-07T19:07:50.201Z,56.50
2018-08-07T19:10:19.061Z,56.60
2018-08-07T19:12:51.851Z,56.60
2018-08-07T19:15:20.303Z,56.70
2018-08-07T19:17:48.209Z,56.90
2018-08-07T19:20:18.080Z,56.80
2018-08-07T19:22:46.241Z,57.00
2018-08-07T19:25:14.108Z,56.90
2018-08-07T19:27:46.988Z,56.80
2018-08-07T19:30:19.600Z,56.70
2018-08-07T19:32:49.482Z,56.80
2018-08-07T19:35:26.195Z,56.90
2018-08-07T19:37:56.435Z,56.80
2018-08-07T19:40:29.390Z,57.10
2018-08-07T19:43:01.198Z,57.10
2018-08-07T19:45:35.531Z,57.30
2018-08-07T19:48:09.221Z,57.30
2018-08-07T19:50:44.759Z,57.90
2018-08-07T19:53:17.100Z,57.80
2018-08-07T19:55:55.957Z,57.60
2018-08-07T19:58:31.591Z,57.80
2018-08-07T20:01:08.511Z,57.70
2018-08-07T20:03:41.840Z,57.90
2018-08-07T20:06:16.387Z,58.10
2018-08-07T20:08:54.262Z,57.80
2018-08-07T20:11:28.341Z,59.00
2018-08-07T20:14:03.812Z,59.20
2018-08-07T20:16:38.459Z,59.50
2018-08-07T20:19:08.119Z,59.70
2018-08-07T20:21:45.262Z,60.30
2018-08-07T20:24:18.983Z,61.40
2018-08-07T20:26:52.760Z,62.30
2018-08-07T20:29:28.364Z,62.20
2018-08-07T20:31:59.670Z,61.30
2018-08-07T20:34:36.215Z,61.10
2018-08-07T20:37:12.948Z,61.20
2018-08-07T20:39:49.272Z,61.90
2018-08-07T20:42:19.469Z,62.70
2018-08-07T20:44:53.116Z,63.60
2018-08-07T20:47:24.563Z,64.50
2018-08-07T20:50:00.851Z,64.90
2018-08-07T20:52:34.835Z,65.90
2018-08-07T20:55:14.840Z,67.00
2018-08-07T20:57:48.537Z,68.00
2018-08-07T21:00:32.263Z,69.40
2018-08-07T21:03:05.266Z,71.10
2018-08-07T21:05:43.235Z,70.40
2018-08-07T21:08:17.096Z,70.90
2018-08-07T21:10:52.643Z,72.10
2018-08-07T21:13:28.279Z,73.10
2018-08-07T21:15:57.453Z,72.60
2018-08-07T21:18:35.142Z,71.50
2018-08-07T21:21:07.534Z,70.20
2018-08-07T21:23:36.265Z,70.10
2018-08-07T21:26:05.846Z,72.20
2018-08-07T21:28:33.693Z,78.60
2018-08-07T21:31:01.587Z,84.70
2018-08-07T21:33:29.651Z,62.10
2018-08-07T21:36:02.278Z,62.20
2018-08-07T21:38:30.019Z,62.40
2018-08-07T21:40:58.297Z,62.60
2018-08-07T21:43:27.322Z,62.90
2018-08-07T21:46:01.680Z,62.90
2018-08-07T21:48:29.481Z,62.90
2018-08-07T21:50:58.740Z,63.80
2018-08-07T21:53:31.702Z,63.90
2018-08-07T21:56:01.693Z,63.80
2018-08-07T21:58:32.662Z,64.30
2018-08-07T22:01:01.419Z,64.00
2018-08-07T22:03:31.665Z,64.30
2018-08-07T22:06:02.744Z,64.40
2018-08-07T22:08:32.891Z,64.10
2018-08-07T22:11:08.452Z,64.30
2018-08-07T22:13:41.416Z,64.80
2018-08-07T22:16:09.417Z,65.40
2018-08-07T22:18:40.580Z,66.30
2018-08-07T22:21:09.424Z,66.80
2018-08-07T22:23:40.489Z,66.90
2018-08-07T22:26:11.655Z,66.50
2018-08-07T22:28:40.344Z,66.50
2018-08-07T22:31:10.325Z,66.50
2018-08-07T22:33:46.703Z,66.90
2018-08-07T22:36:14.583Z,67.00
2018-08-07T22:38:46.668Z,67.10
2018-08-07T22:41:18.339Z,67.10
2018-08-07T22:43:48.792Z,67.50
2018-08-07T22:46:18.671Z,67.30
2018-08-07T22:48:46.566Z,68.00
2018-08-07T22:51:19.630Z,68.30
2018-08-07T22:53:50.992Z,68.10
2018-08-07T22:56:24.755Z,69.10
2018-08-07T22:58:55.488Z,69.10
2018-08-07T23:01:23.943Z,69.50
2018-08-07T23:03:52.669Z,69.20
2018-08-07T23:06:21.480Z,69.60
2018-08-07T23:08:50.369Z,70.00
2018-08-07T23:11:19.833Z,70.90
2018-08-07T23:13:50.097Z,71.20
2018-08-07T23:16:22.712Z,70.90
2018-08-07T23:18:52.472Z,70.70
2018-08-07T23:21:21.242Z,70.60
2018-08-07T23:23:52.742Z,70.50
2018-08-07T23:26:22.552Z,70.30
2018-08-07T23:28:55.544Z,70.50
2018-08-07T23:31:27.776Z,70.70
2018-08-07T23:33:56.207Z,71.00
2018-08-07T23:36:29.547Z,71.10
2018-08-07T23:39:03.581Z,71.30
2018-08-07T23:41:40.423Z,71.00
2018-08-07T23:44:15.052Z,71.50
2018-08-07T23:46:51.458Z,71.70
2018-08-07T23:49:20.159Z,71.40
2018-08-07T23:51:53.088Z,71.40
2018-08-07T23:54:24.598Z,71.70
2018-08-07T23:56:56.351Z,71.30
2018-08-07T23:59:28.983Z,71.20
